sensor_id;sensor_type;location;lat;lon;timestamp;P1;durP1;ratioP1;P2;durP2;ratioP2
25479;SDS011;13393;49.378;8.686;2024-02-21T00:02:01;14.73;;;6.00;;
25479;SDS011;13393;49.378;8.686;2024-02-21T00:04:27;17.63;;;5.68;;
25479;SDS011;13393;49.378;8.686;2024-02-21T00:06:54;15.25;;;6.40;;
25479;SDS011;13393;49.378;8.686;2024-02-21T00:09:22;15.45;;;6.18;;
25479;SDS011;13393;49.378;8.686;2024-02-21T00:11:48;17.80;;;6.28;;
25479;SDS011;13393;49.378;8.686;2024-02-21T00:14:14;9.57;;;5.07;;
25479;SDS011;13393;49.378;8.686;2024-02-21T00:16:41;18.95;;;5.57;;
25479;SDS011;13393;49.378;8.686;2024-02-21T00:19:08;15.52;;;5.30;;
25479;SDS011;13393;49.378;8.686;2024-02-21T00:21:34;17.40;;;5.70;;
25479;SDS011;13393;49.378;8.686;2024-02-21T00:24:01;20.08;;;5.88;;
25479;SDS011;13393;49.378;8.686;2024-02-21T00:26:29;18.50;;;6.43;;
25479;SDS011;13393;49.378;8.686;2024-02-21T00:28:55;13.55;;;5.97;;
25479;SDS011;13393;49.378;8.686;2024-02-21T00:31:22;15.68;;;5.65;;
25479;SDS011;13393;49.378;8.686;2024-02-21T00:33:48;15.38;;;5.88;;
25479;SDS011;13393;49.378;8.686;2024-02-21T00:36:15;20.98;;;6.28;;
25479;SDS011;13393;49.378;8.686;2024-02-21T00:38:42;16.90;;;5.25;;
25479;SDS011;13393;49.378;8.686;2024-02-21T00:41:08;15.25;;;5.93;;
25479;SDS011;13393;49.378;8.686;2024-02-21T00:43:36;13.35;;;5.50;;
25479;SDS011;13393;49.378;8.686;2024-02-21T00:46:03;16.13;;;5.68;;
25479;SDS011;13393;49.378;8.686;2024-02-21T00:48:31;14.70;;;6.07;;
25479;SDS011;13393;49.378;8.686;2024-02-21T00:50:57;16.55;;;6.03;;
25479;SDS011;13393;49.378;8.686;2024-02-21T00:53:24;12.82;;;5.28;;
25479;SDS011;13393;49.378;8.686;2024-02-21T00:55:50;16.83;;;5.55;;
25479;SDS011;13393;49.378;8.686;2024-02-21T00:58:17;18.13;;;5.38;;
25479;SDS011;13393;49.378;8.686;2024-02-21T01:00:45;14.18;;;5.68;;
25479;SDS011;13393;49.378;8.686;2024-02-21T01:03:11;14.18;;;5.13;;
25479;SDS011;13393;49.378;8.686;2024-02-21T01:05:38;16.38;;;5.40;;
25479;SDS011;13393;49.378;8.686;2024-02-21T01:08:04;17.95;;;6.07;;
25479;SDS011;13393;49.378;8.686;2024-02-21T01:10:31;14.13;;;5.30;;
25479;SDS011;13393;49.378;8.686;2024-02-21T01:12:57;16.40;;;5.25;;
25479;SDS011;13393;49.378;8.686;2024-02-21T01:15:24;14.70;;;5.57;;
25479;SDS011;13393;49.378;8.686;2024-02-21T01:17:52;15.27;;;5.57;;
25479;SDS011;13393;49.378;8.686;2024-02-21T01:20:19;16.13;;;5.90;;
25479;SDS011;13393;49.378;8.686;2024-02-21T01:22:46;14.20;;;5.70;;
25479;SDS011;13393;49.378;8.686;2024-02-21T01:25:12;14.25;;;5.75;;
25479;SDS011;13393;49.378;8.686;2024-02-21T01:27:39;17.10;;;5.75;;
25479;SDS011;13393;49.378;8.686;2024-02-21T01:30:06;12.98;;;5.55;;
25479;SDS011;13393;49.378;8.686;2024-02-21T01:32:32;12.80;;;5.75;;
25479;SDS011;13393;49.378;8.686;2024-02-21T01:35:00;17.20;;;5.35;;
25479;SDS011;13393;49.378;8.686;2024-02-21T01:37:26;15.32;;;5.60;;
25479;SDS011;13393;49.378;8.686;2024-02-21T01:39:53;17.38;;;5.95;;
25479;SDS011;13393;49.378;8.686;2024-02-21T01:42:19;17.20;;;5.85;;
25479;SDS011;13393;49.378;8.686;2024-02-21T01:44:46;13.45;;;5.43;;
25479;SDS011;13393;49.378;8.686;2024-02-21T01:47:12;15.52;;;5.43;;
25479;SDS011;13393;49.378;8.686;2024-02-21T01:49:39;9.98;;;5.13;;
25479;SDS011;13393;49.378;8.686;2024-02-21T01:52:07;16.52;;;5.22;;
25479;SDS011;13393;49.378;8.686;2024-02-21T01:54:34;13.10;;;5.43;;
25479;SDS011;13393;49.378;8.686;2024-02-21T01:57:01;12.43;;;4.88;;
25479;SDS011;13393;49.378;8.686;2024-02-21T01:59:27;13.82;;;5.07;;
25479;SDS011;13393;49.378;8.686;2024-02-21T02:01:54;18.73;;;5.93;;
25479;SDS011;13393;49.378;8.686;2024-02-21T02:04:21;12.38;;;4.72;;
25479;SDS011;13393;49.378;8.686;2024-02-21T02:06:48;10.20;;;4.88;;
25479;SDS011;13393;49.378;8.686;2024-02-21T02:09:16;12.30;;;4.60;;
25479;SDS011;13393;49.378;8.686;2024-02-21T02:11:43;11.77;;;4.72;;
25479;SDS011;13393;49.378;8.686;2024-02-21T02:14:09;13.55;;;5.10;;
25479;SDS011;13393;49.378;8.686;2024-02-21T02:16:36;14.32;;;5.10;;
25479;SDS011;13393;49.378;8.686;2024-02-21T02:19:02;17.80;;;5.28;;
25479;SDS011;13393;49.378;8.686;2024-02-21T02:21:29;14.32;;;4.45;;
25479;SDS011;13393;49.378;8.686;2024-02-21T02:24:00;16.23;;;5.60;;
25479;SDS011;13393;49.378;8.686;2024-02-21T02:26:26;13.80;;;4.85;;
25479;SDS011;13393;49.378;8.686;2024-02-21T02:28:53;16.25;;;5.57;;
25479;SDS011;13393;49.378;8.686;2024-02-21T02:31:19;10.45;;;4.68;;
25479;SDS011;13393;49.378;8.686;2024-02-21T02:33:46;17.15;;;5.82;;
25479;SDS011;13393;49.378;8.686;2024-02-21T02:36:13;15.52;;;5.70;;
25479;SDS011;13393;49.378;8.686;2024-02-21T02:38:39;13.23;;;5.40;;
25479;SDS011;13393;49.378;8.686;2024-02-21T02:41:07;15.50;;;5.55;;
25479;SDS011;13393;49.378;8.686;2024-02-21T02:43:34;16.90;;;5.53;;
25479;SDS011;13393;49.378;8.686;2024-02-21T02:46:01;18.25;;;5.43;;
25479;SDS011;13393;49.378;8.686;2024-02-21T02:48:28;15.95;;;5.55;;
25479;SDS011;13393;49.378;8.686;2024-02-21T02:50:55;15.70;;;5.00;;
25479;SDS011;13393;49.378;8.686;2024-02-21T02:53:21;14.88;;;5.55;;
25479;SDS011;13393;49.378;8.686;2024-02-21T02:55:48;12.07;;;4.35;;
25479;SDS011;13393;49.378;8.686;2024-02-21T02:58:16;14.75;;;6.15;;
25479;SDS011;13393;49.378;8.686;2024-02-21T03:00:42;14.73;;;5.63;;
25479;SDS011;13393;49.378;8.686;2024-02-21T03:03:08;17.60;;;6.13;;
25479;SDS011;13393;49.378;8.686;2024-02-21T03:05:35;10.30;;;4.85;;
25479;SDS011;13393;49.378;8.686;2024-02-21T03:08:01;13.43;;;4.57;;
25479;SDS011;13393;49.378;8.686;2024-02-21T03:10:32;13.65;;;5.45;;
25479;SDS011;13393;49.378;8.686;2024-02-21T03:12:58;15.32;;;4.65;;
25479;SDS011;13393;49.378;8.686;2024-02-21T03:15:26;13.88;;;5.20;;
25479;SDS011;13393;49.378;8.686;2024-02-21T03:17:52;15.02;;;5.35;;
25479;SDS011;13393;49.378;8.686;2024-02-21T03:20:19;13.88;;;5.07;;
25479;SDS011;13393;49.378;8.686;2024-02-21T03:22:45;11.80;;;5.05;;
25479;SDS011;13393;49.378;8.686;2024-02-21T03:25:12;10.95;;;4.38;;
25479;SDS011;13393;49.378;8.686;2024-02-21T03:27:40;14.48;;;5.05;;
25479;SDS011;13393;49.378;8.686;2024-02-21T03:30:07;14.27;;;4.95;;
25479;SDS011;13393;49.378;8.686;2024-02-21T03:32:35;9.82;;;4.50;;
25479;SDS011;13393;49.378;8.686;2024-02-21T03:35:01;11.30;;;4.32;;
25479;SDS011;13393;49.378;8.686;2024-02-21T03:37:28;12.15;;;4.70;;
25479;SDS011;13393;49.378;8.686;2024-02-21T03:39:54;13.18;;;4.40;;
25479;SDS011;13393;49.378;8.686;2024-02-21T03:42:20;14.88;;;5.97;;
25479;SDS011;13393;49.378;8.686;2024-02-21T03:44:47;15.27;;;5.50;;
25479;SDS011;13393;49.378;8.686;2024-02-21T03:47:13;18.92;;;5.63;;
25479;SDS011;13393;49.378;8.686;2024-02-21T03:49:41;12.68;;;4.60;;
25479;SDS011;13393;49.378;8.686;2024-02-21T03:52:08;10.40;;;4.97;;
25479;SDS011;13393;49.378;8.686;2024-02-21T03:54:34;17.95;;;4.90;;
25479;SDS011;13393;49.378;8.686;2024-02-21T03:57:00;11.15;;;4.55;;
25479;SDS011;13393;49.378;8.686;2024-02-21T03:59:27;12.82;;;4.22;;
25479;SDS011;13393;49.378;8.686;2024-02-21T04:01:54;15.43;;;4.70;;
25479;SDS011;13393;49.378;8.686;2024-02-21T04:04:20;13.70;;;5.43;;
25479;SDS011;13393;49.378;8.686;2024-02-21T04:06:48;13.07;;;4.57;;
25479;SDS011;13393;49.378;8.686;2024-02-21T04:09:15;14.32;;;4.88;;
25479;SDS011;13393;49.378;8.686;2024-02-21T04:11:42;11.05;;;4.22;;
25479;SDS011;13393;49.378;8.686;2024-02-21T04:14:08;12.18;;;4.25;;
25479;SDS011;13393;49.378;8.686;2024-02-21T04:16:36;12.68;;;4.50;;
25479;SDS011;13393;49.378;8.686;2024-02-21T04:19:02;14.90;;;4.90;;
25479;SDS011;13393;49.378;8.686;2024-02-21T04:21:29;16.00;;;4.43;;
25479;SDS011;13393;49.378;8.686;2024-02-21T04:23:57;13.07;;;4.47;;
25479;SDS011;13393;49.378;8.686;2024-02-21T04:26:23;11.25;;;4.78;;
25479;SDS011;13393;49.378;8.686;2024-02-21T04:28:50;12.15;;;3.95;;
25479;SDS011;13393;49.378;8.686;2024-02-21T04:31:16;12.85;;;4.75;;
25479;SDS011;13393;49.378;8.686;2024-02-21T04:33:42;10.18;;;4.05;;
25479;SDS011;13393;49.378;8.686;2024-02-21T04:36:09;17.20;;;5.65;;
25479;SDS011;13393;49.378;8.686;2024-02-21T04:38:36;17.10;;;4.45;;
25479;SDS011;13393;49.378;8.686;2024-02-21T04:41:05;10.40;;;3.80;;
25479;SDS011;13393;49.378;8.686;2024-02-21T04:43:32;9.25;;;4.00;;
25479;SDS011;13393;49.378;8.686;2024-02-21T04:45:58;17.67;;;5.28;;
25479;SDS011;13393;49.378;8.686;2024-02-21T04:48:25;12.50;;;4.72;;
25479;SDS011;13393;49.378;8.686;2024-02-21T04:50:51;13.18;;;5.07;;
25479;SDS011;13393;49.378;8.686;2024-02-21T04:53:18;12.02;;;4.50;;
25479;SDS011;13393;49.378;8.686;2024-02-21T04:55:44;14.20;;;4.45;;
25479;SDS011;13393;49.378;8.686;2024-02-21T04:58:12;15.30;;;5.07;;
25479;SDS011;13393;49.378;8.686;2024-02-21T05:00:38;14.80;;;5.00;;
25479;SDS011;13393;49.378;8.686;2024-02-21T05:03:05;13.75;;;5.22;;
25479;SDS011;13393;49.378;8.686;2024-02-21T05:05:31;18.33;;;5.47;;
25479;SDS011;13393;49.378;8.686;2024-02-21T05:07:58;13.60;;;5.15;;
25479;SDS011;13393;49.378;8.686;2024-02-21T05:10:24;13.93;;;4.90;;
25479;SDS011;13393;49.378;8.686;2024-02-21T05:12:51;13.32;;;3.95;;
25479;SDS011;13393;49.378;8.686;2024-02-21T05:15:19;15.35;;;4.30;;
25479;SDS011;13393;49.378;8.686;2024-02-21T05:17:45;11.60;;;4.20;;
25479;SDS011;13393;49.378;8.686;2024-02-21T05:20:11;16.30;;;4.32;;
25479;SDS011;13393;49.378;8.686;2024-02-21T05:22:38;12.18;;;4.20;;
25479;SDS011;13393;49.378;8.686;2024-02-21T05:25:05;16.10;;;5.50;;
25479;SDS011;13393;49.378;8.686;2024-02-21T05:27:31;13.93;;;4.65;;
25479;SDS011;13393;49.378;8.686;2024-02-21T05:29:59;15.32;;;4.60;;
25479;SDS011;13393;49.378;8.686;2024-02-21T05:32:27;10.90;;;4.40;;
25479;SDS011;13393;49.378;8.686;2024-02-21T05:34:53;10.88;;;4.55;;
25479;SDS011;13393;49.378;8.686;2024-02-21T05:37:20;13.35;;;4.88;;
25479;SDS011;13393;49.378;8.686;2024-02-21T05:39:46;14.10;;;4.65;;
25479;SDS011;13393;49.378;8.686;2024-02-21T05:42:12;8.98;;;3.90;;
25479;SDS011;13393;49.378;8.686;2024-02-21T05:44:39;13.35;;;5.07;;
25479;SDS011;13393;49.378;8.686;2024-02-21T05:47:05;13.15;;;4.35;;
25479;SDS011;13393;49.378;8.686;2024-02-21T05:49:36;15.45;;;5.88;;
25479;SDS011;13393;49.378;8.686;2024-02-21T05:52:03;11.52;;;4.35;;
25479;SDS011;13393;49.378;8.686;2024-02-21T05:54:31;12.82;;;4.70;;
25479;SDS011;13393;49.378;8.686;2024-02-21T05:56:57;16.13;;;4.88;;
25479;SDS011;13393;49.378;8.686;2024-02-21T05:59:24;13.15;;;4.88;;
25479;SDS011;13393;49.378;8.686;2024-02-21T06:01:54;10.02;;;4.60;;
25479;SDS011;13393;49.378;8.686;2024-02-21T06:04:21;10.40;;;4.90;;
25479;SDS011;13393;49.378;8.686;2024-02-21T06:06:49;13.50;;;5.35;;
25479;SDS011;13393;49.378;8.686;2024-02-21T06:09:15;12.43;;;4.85;;
25479;SDS011;13393;49.378;8.686;2024-02-21T06:11:42;9.90;;;4.82;;
25479;SDS011;13393;49.378;8.686;2024-02-21T06:14:08;15.60;;;7.28;;
25479;SDS011;13393;49.378;8.686;2024-02-21T06:16:34;15.35;;;4.82;;
25479;SDS011;13393;49.378;8.686;2024-02-21T06:19:01;12.85;;;5.03;;
25479;SDS011;13393;49.378;8.686;2024-02-21T06:21:28;11.60;;;4.75;;
25479;SDS011;13393;49.378;8.686;2024-02-21T06:23:57;11.00;;;5.05;;
25479;SDS011;13393;49.378;8.686;2024-02-21T06:26:23;13.00;;;4.63;;
25479;SDS011;13393;49.378;8.686;2024-02-21T06:28:50;12.75;;;5.40;;
25479;SDS011;13393;49.378;8.686;2024-02-21T06:31:16;12.68;;;4.35;;
25479;SDS011;13393;49.378;8.686;2024-02-21T06:33:43;10.82;;;4.05;;
25479;SDS011;13393;49.378;8.686;2024-02-21T06:36:09;11.25;;;4.85;;
25479;SDS011;13393;49.378;8.686;2024-02-21T06:38:36;16.42;;;4.47;;
25479;SDS011;13393;49.378;8.686;2024-02-21T06:41:04;17.60;;;4.78;;
25479;SDS011;13393;49.378;8.686;2024-02-21T06:43:30;12.13;;;4.72;;
25479;SDS011;13393;49.378;8.686;2024-02-21T06:45:57;12.07;;;4.38;;
25479;SDS011;13393;49.378;8.686;2024-02-21T06:48:23;13.23;;;4.85;;
25479;SDS011;13393;49.378;8.686;2024-02-21T06:50:49;14.85;;;5.32;;
25479;SDS011;13393;49.378;8.686;2024-02-21T06:53:16;11.38;;;4.90;;
25479;SDS011;13393;49.378;8.686;2024-02-21T06:55:42;10.98;;;4.78;;
25479;SDS011;13393;49.378;8.686;2024-02-21T06:58:11;11.25;;;4.70;;
25479;SDS011;13393;49.378;8.686;2024-02-21T07:00:38;10.90;;;4.03;;
25479;SDS011;13393;49.378;8.686;2024-02-21T07:03:05;13.27;;;4.57;;
25479;SDS011;13393;49.378;8.686;2024-02-21T07:05:31;13.85;;;4.80;;
25479;SDS011;13393;49.378;8.686;2024-02-21T07:07:58;9.95;;;4.15;;
25479;SDS011;13393;49.378;8.686;2024-02-21T07:10:24;14.68;;;5.25;;
25479;SDS011;13393;49.378;8.686;2024-02-21T07:12:52;14.13;;;4.47;;
25479;SDS011;13393;49.378;8.686;2024-02-21T07:15:20;10.73;;;4.20;;
25479;SDS011;13393;49.378;8.686;2024-02-21T07:17:47;15.10;;;4.82;;
25479;SDS011;13393;49.378;8.686;2024-02-21T07:20:13;10.65;;;4.07;;
25479;SDS011;13393;49.378;8.686;2024-02-21T07:22:39;18.95;;;5.32;;
25479;SDS011;13393;49.378;8.686;2024-02-21T07:25:06;11.73;;;4.40;;
25479;SDS011;13393;49.378;8.686;2024-02-21T07:27:35;13.82;;;4.65;;
25479;SDS011;13393;49.378;8.686;2024-02-21T07:30:02;13.57;;;4.78;;
25479;SDS011;13393;49.378;8.686;2024-02-21T07:32:30;13.80;;;4.28;;
25479;SDS011;13393;49.378;8.686;2024-02-21T07:34:57;14.65;;;4.60;;
25479;SDS011;13393;49.378;8.686;2024-02-21T07:37:23;16.15;;;4.68;;
25479;SDS011;13393;49.378;8.686;2024-02-21T07:39:49;14.40;;;5.13;;
25479;SDS011;13393;49.378;8.686;2024-02-21T07:42:16;13.98;;;4.97;;
25479;SDS011;13393;49.378;8.686;2024-02-21T07:44:42;15.52;;;4.70;;
25479;SDS011;13393;49.378;8.686;2024-02-21T07:47:08;9.68;;;4.13;;
25479;SDS011;13393;49.378;8.686;2024-02-21T07:49:42;12.35;;;4.38;;
25479;SDS011;13393;49.378;8.686;2024-02-21T07:52:08;14.45;;;4.47;;
25479;SDS011;13393;49.378;8.686;2024-02-21T07:54:35;8.32;;;3.90;;
25479;SDS011;13393;49.378;8.686;2024-02-21T07:57:01;13.18;;;4.03;;
25479;SDS011;13393;49.378;8.686;2024-02-21T07:59:28;10.13;;;4.22;;
25479;SDS011;13393;49.378;8.686;2024-02-21T08:01:56;8.68;;;4.57;;
25479;SDS011;13393;49.378;8.686;2024-02-21T08:04:22;10.98;;;4.65;;
25479;SDS011;13393;49.378;8.686;2024-02-21T08:06:52;11.40;;;4.47;;
25479;SDS011;13393;49.378;8.686;2024-02-21T08:09:20;12.15;;;4.35;;
25479;SDS011;13393;49.378;8.686;2024-02-21T08:11:47;10.73;;;4.38;;
25479;SDS011;13393;49.378;8.686;2024-02-21T08:14:14;11.80;;;4.43;;
25479;SDS011;13393;49.378;8.686;2024-02-21T08:16:41;10.23;;;4.22;;
25479;SDS011;13393;49.378;8.686;2024-02-21T08:19:07;10.55;;;4.18;;
25479;SDS011;13393;49.378;8.686;2024-02-21T08:21:35;15.43;;;5.03;;
25479;SDS011;13393;49.378;8.686;2024-02-21T08:24:04;15.30;;;5.07;;
25479;SDS011;13393;49.378;8.686;2024-02-21T08:26:30;12.50;;;4.65;;
25479;SDS011;13393;49.378;8.686;2024-02-21T08:28:57;11.05;;;4.10;;
25479;SDS011;13393;49.378;8.686;2024-02-21T08:31:26;12.13;;;5.18;;
25479;SDS011;13393;49.378;8.686;2024-02-21T08:33:56;12.38;;;4.57;;
25479;SDS011;13393;49.378;8.686;2024-02-21T08:36:27;9.77;;;4.32;;
25479;SDS011;13393;49.378;8.686;2024-02-21T08:38:53;10.65;;;4.40;;
25479;SDS011;13393;49.378;8.686;2024-02-21T08:41:21;18.42;;;5.35;;
25479;SDS011;13393;49.378;8.686;2024-02-21T08:43:49;9.55;;;4.20;;
25479;SDS011;13393;49.378;8.686;2024-02-21T08:46:15;11.20;;;4.90;;
25479;SDS011;13393;49.378;8.686;2024-02-21T08:48:42;11.02;;;4.10;;
25479;SDS011;13393;49.378;8.686;2024-02-21T08:51:10;12.32;;;3.78;;
25479;SDS011;13393;49.378;8.686;2024-02-21T08:53:37;17.70;;;4.28;;
25479;SDS011;13393;49.378;8.686;2024-02-21T08:56:04;15.25;;;4.28;;
25479;SDS011;13393;49.378;8.686;2024-02-21T08:58:32;11.38;;;5.20;;
25479;SDS011;13393;49.378;8.686;2024-02-21T09:00:58;10.80;;;4.80;;
25479;SDS011;13393;49.378;8.686;2024-02-21T09:03:25;12.68;;;4.93;;
25479;SDS011;13393;49.378;8.686;2024-02-21T09:05:52;10.85;;;4.13;;
25479;SDS011;13393;49.378;8.686;2024-02-21T09:08:18;14.02;;;4.40;;
25479;SDS011;13393;49.378;8.686;2024-02-21T09:10:44;19.88;;;4.82;;
25479;SDS011;13393;49.378;8.686;2024-02-21T09:13:11;11.23;;;4.40;;
25479;SDS011;13393;49.378;8.686;2024-02-21T09:15:39;19.15;;;5.13;;
25479;SDS011;13393;49.378;8.686;2024-02-21T09:18:05;14.15;;;4.88;;
25479;SDS011;13393;49.378;8.686;2024-02-21T09:20:32;11.75;;;4.35;;
25479;SDS011;13393;49.378;8.686;2024-02-21T09:22:58;12.68;;;4.78;;
25479;SDS011;13393;49.378;8.686;2024-02-21T09:25:25;9.75;;;4.75;;
25479;SDS011;13393;49.378;8.686;2024-02-21T09:27:53;7.75;;;4.05;;
25479;SDS011;13393;49.378;8.686;2024-02-21T09:30:20;12.52;;;4.85;;
25479;SDS011;13393;49.378;8.686;2024-02-21T09:32:48;15.60;;;4.57;;
25479;SDS011;13393;49.378;8.686;2024-02-21T09:35:14;10.48;;;3.75;;
25479;SDS011;13393;49.378;8.686;2024-02-21T09:37:40;13.77;;;4.90;;
25479;SDS011;13393;49.378;8.686;2024-02-21T09:40:07;15.65;;;4.72;;
25479;SDS011;13393;49.378;8.686;2024-02-21T09:42:36;9.95;;;3.60;;
25479;SDS011;13393;49.378;8.686;2024-02-21T09:45:03;13.48;;;5.03;;
25479;SDS011;13393;49.378;8.686;2024-02-21T09:47:34;12.27;;;4.38;;
25479;SDS011;13393;49.378;8.686;2024-02-21T09:50:06;12.93;;;4.03;;
25479;SDS011;13393;49.378;8.686;2024-02-21T09:52:33;9.48;;;3.70;;
25479;SDS011;13393;49.378;8.686;2024-02-21T09:55:00;9.02;;;3.72;;
25479;SDS011;13393;49.378;8.686;2024-02-21T09:57:27;12.35;;;4.35;;
25479;SDS011;13393;49.378;8.686;2024-02-21T09:59:54;11.55;;;4.30;;
25479;SDS011;13393;49.378;8.686;2024-02-21T10:02:22;15.38;;;4.28;;
25479;SDS011;13393;49.378;8.686;2024-02-21T10:04:48;16.52;;;4.63;;
25479;SDS011;13393;49.378;8.686;2024-02-21T10:07:16;14.65;;;4.75;;
25479;SDS011;13393;49.378;8.686;2024-02-21T10:09:48;8.75;;;3.72;;
25479;SDS011;13393;49.378;8.686;2024-02-21T10:12:14;12.50;;;4.13;;
25479;SDS011;13393;49.378;8.686;2024-02-21T10:14:44;11.07;;;3.70;;
25479;SDS011;13393;49.378;8.686;2024-02-21T10:17:15;12.00;;;3.53;;
25479;SDS011;13393;49.378;8.686;2024-02-21T10:19:43;8.85;;;3.35;;
25479;SDS011;13393;49.378;8.686;2024-02-21T10:22:10;10.15;;;3.83;;
25479;SDS011;13393;49.378;8.686;2024-02-21T10:24:38;11.75;;;3.58;;
25479;SDS011;13393;49.378;8.686;2024-02-21T10:27:06;9.52;;;3.80;;
25479;SDS011;13393;49.378;8.686;2024-02-21T10:29:34;11.07;;;4.43;;
25479;SDS011;13393;49.378;8.686;2024-02-21T10:32:07;12.13;;;3.90;;
25479;SDS011;13393;49.378;8.686;2024-02-21T10:34:34;12.40;;;3.20;;
25479;SDS011;13393;49.378;8.686;2024-02-21T10:37:01;8.20;;;3.30;;
25479;SDS011;13393;49.378;8.686;2024-02-21T10:39:28;10.57;;;3.53;;
25479;SDS011;13393;49.378;8.686;2024-02-21T10:41:56;9.85;;;3.15;;
25479;SDS011;13393;49.378;8.686;2024-02-21T10:44:25;10.57;;;3.53;;
25479;SDS011;13393;49.378;8.686;2024-02-21T10:46:54;9.23;;;3.10;;
25479;SDS011;13393;49.378;8.686;2024-02-21T10:49:22;9.88;;;3.33;;
25479;SDS011;13393;49.378;8.686;2024-02-21T10:51:50;9.05;;;3.60;;
25479;SDS011;13393;49.378;8.686;2024-02-21T10:54:23;9.75;;;3.22;;
25479;SDS011;13393;49.378;8.686;2024-02-21T10:56:51;8.45;;;3.30;;
25479;SDS011;13393;49.378;8.686;2024-02-21T10:59:19;10.05;;;3.60;;
25479;SDS011;13393;49.378;8.686;2024-02-21T11:01:45;15.98;;;3.67;;
25479;SDS011;13393;49.378;8.686;2024-02-21T11:04:12;9.63;;;2.63;;
25479;SDS011;13393;49.378;8.686;2024-02-21T11:06:39;10.02;;;3.17;;
25479;SDS011;13393;49.378;8.686;2024-02-21T11:09:06;8.60;;;3.50;;
25479;SDS011;13393;49.378;8.686;2024-02-21T11:11:33;11.43;;;3.30;;
25479;SDS011;13393;49.378;8.686;2024-02-21T11:14:06;11.27;;;2.95;;
25479;SDS011;13393;49.378;8.686;2024-02-21T11:16:38;6.57;;;2.47;;
25479;SDS011;13393;49.378;8.686;2024-02-21T11:19:08;6.50;;;2.67;;
25479;SDS011;13393;49.378;8.686;2024-02-21T11:21:35;9.35;;;2.92;;
25479;SDS011;13393;49.378;8.686;2024-02-21T11:24:02;10.18;;;3.15;;
25479;SDS011;13393;49.378;8.686;2024-02-21T11:26:29;7.63;;;2.60;;
25479;SDS011;13393;49.378;8.686;2024-02-21T11:28:56;7.50;;;2.65;;
25479;SDS011;13393;49.378;8.686;2024-02-21T11:31:22;9.65;;;2.80;;
25479;SDS011;13393;49.378;8.686;2024-02-21T11:33:50;10.10;;;2.58;;
25479;SDS011;13393;49.378;8.686;2024-02-21T11:36:23;11.35;;;3.35;;
25479;SDS011;13393;49.378;8.686;2024-02-21T11:38:50;6.63;;;2.70;;
25479;SDS011;13393;49.378;8.686;2024-02-21T11:41:17;9.23;;;2.95;;
25479;SDS011;13393;49.378;8.686;2024-02-21T11:43:43;10.82;;;3.22;;
25479;SDS011;13393;49.378;8.686;2024-02-21T11:46:10;8.10;;;3.03;;
25479;SDS011;13393;49.378;8.686;2024-02-21T11:48:36;7.40;;;3.15;;
25479;SDS011;13393;49.378;8.686;2024-02-21T11:51:05;9.57;;;2.75;;
25479;SDS011;13393;49.378;8.686;2024-02-21T11:53:31;9.35;;;2.78;;
25479;SDS011;13393;49.378;8.686;2024-02-21T11:55:58;10.23;;;2.97;;
25479;SDS011;13393;49.378;8.686;2024-02-21T11:58:24;9.10;;;2.67;;
25479;SDS011;13393;49.378;8.686;2024-02-21T12:00:51;8.00;;;2.63;;
25479;SDS011;13393;49.378;8.686;2024-02-21T12:03:18;5.57;;;2.50;;
25479;SDS011;13393;49.378;8.686;2024-02-21T12:05:44;7.53;;;2.58;;
25479;SDS011;13393;49.378;8.686;2024-02-21T12:08:13;11.55;;;3.13;;
25479;SDS011;13393;49.378;8.686;2024-02-21T12:10:41;6.55;;;3.22;;
25479;SDS011;13393;49.378;8.686;2024-02-21T12:13:09;7.03;;;2.53;;
25479;SDS011;13393;49.378;8.686;2024-02-21T12:15:36;7.85;;;2.42;;
25479;SDS011;13393;49.378;8.686;2024-02-21T12:18:02;7.97;;;2.50;;
25479;SDS011;13393;49.378;8.686;2024-02-21T12:20:30;10.10;;;2.78;;
25479;SDS011;13393;49.378;8.686;2024-02-21T12:22:57;9.73;;;2.95;;
25479;SDS011;13393;49.378;8.686;2024-02-21T12:25:27;9.40;;;3.00;;
25479;SDS011;13393;49.378;8.686;2024-02-21T12:27:54;9.10;;;3.25;;
25479;SDS011;13393;49.378;8.686;2024-02-21T12:30:21;7.40;;;2.35;;
25479;SDS011;13393;49.378;8.686;2024-02-21T12:32:47;10.13;;;3.47;;
25479;SDS011;13393;49.378;8.686;2024-02-21T12:35:14;10.13;;;3.40;;
25479;SDS011;13393;49.378;8.686;2024-02-21T12:37:41;11.52;;;3.00;;
25479;SDS011;13393;49.378;8.686;2024-02-21T12:40:08;8.25;;;2.13;;
25479;SDS011;13393;49.378;8.686;2024-02-21T12:42:37;7.60;;;2.47;;
25479;SDS011;13393;49.378;8.686;2024-02-21T12:45:03;9.00;;;2.63;;
25479;SDS011;13393;49.378;8.686;2024-02-21T12:47:30;5.90;;;2.63;;
25479;SDS011;13393;49.378;8.686;2024-02-21T12:49:56;9.52;;;2.50;;
25479;SDS011;13393;49.378;8.686;2024-02-21T12:52:23;6.65;;;2.85;;
25479;SDS011;13393;49.378;8.686;2024-02-21T12:54:50;7.15;;;2.70;;
25479;SDS011;13393;49.378;8.686;2024-02-21T12:57:16;11.77;;;2.78;;
25479;SDS011;13393;49.378;8.686;2024-02-21T12:59:44;8.20;;;2.70;;
25479;SDS011;13393;49.378;8.686;2024-02-21T13:02:11;10.18;;;2.33;;
25479;SDS011;13393;49.378;8.686;2024-02-21T13:04:37;11.57;;;3.33;;
25479;SDS011;13393;49.378;8.686;2024-02-21T13:07:05;9.70;;;2.42;;
25479;SDS011;13393;49.378;8.686;2024-02-21T13:09:32;7.20;;;3.08;;
25479;SDS011;13393;49.378;8.686;2024-02-21T13:11:58;7.43;;;2.50;;
25479;SDS011;13393;49.378;8.686;2024-02-21T13:14:25;8.95;;;2.97;;
25479;SDS011;13393;49.378;8.686;2024-02-21T13:16:53;9.15;;;2.75;;
25479;SDS011;13393;49.378;8.686;2024-02-21T13:19:19;10.70;;;2.60;;
25479;SDS011;13393;49.378;8.686;2024-02-21T13:21:46;7.68;;;2.08;;
25479;SDS011;13393;49.378;8.686;2024-02-21T13:24:14;6.90;;;2.40;;
25479;SDS011;13393;49.378;8.686;2024-02-21T13:26:40;6.22;;;2.20;;
25479;SDS011;13393;49.378;8.686;2024-02-21T13:29:07;7.53;;;2.15;;
25479;SDS011;13393;49.378;8.686;2024-02-21T13:31:34;13.50;;;2.38;;
25479;SDS011;13393;49.378;8.686;2024-02-21T13:34:01;6.28;;;1.85;;
25479;SDS011;13393;49.378;8.686;2024-02-21T13:36:28;7.13;;;2.25;;
25479;SDS011;13393;49.378;8.686;2024-02-21T13:38:54;6.38;;;2.95;;
25479;SDS011;13393;49.378;8.686;2024-02-21T13:41:21;7.60;;;2.88;;
25479;SDS011;13393;49.378;8.686;2024-02-21T13:43:48;4.72;;;1.80;;
25479;SDS011;13393;49.378;8.686;2024-02-21T13:46:14;5.85;;;2.42;;
25479;SDS011;13393;49.378;8.686;2024-02-21T13:48:40;11.68;;;3.17;;
25479;SDS011;13393;49.378;8.686;2024-02-21T13:51:08;9.55;;;2.53;;
25479;SDS011;13393;49.378;8.686;2024-02-21T13:53:36;9.50;;;2.47;;
25479;SDS011;13393;49.378;8.686;2024-02-21T13:56:03;8.00;;;2.50;;
25479;SDS011;13393;49.378;8.686;2024-02-21T13:58:30;9.75;;;3.03;;
25479;SDS011;13393;49.378;8.686;2024-02-21T14:00:57;8.15;;;2.30;;
25479;SDS011;13393;49.378;8.686;2024-02-21T14:03:23;10.48;;;3.08;;
25479;SDS011;13393;49.378;8.686;2024-02-21T14:05:51;5.63;;;2.10;;
25479;SDS011;13393;49.378;8.686;2024-02-21T14:08:19;10.52;;;2.55;;
25479;SDS011;13393;49.378;8.686;2024-02-21T14:10:45;7.72;;;2.40;;
25479;SDS011;13393;49.378;8.686;2024-02-21T14:13:12;8.35;;;2.60;;
25479;SDS011;13393;49.378;8.686;2024-02-21T14:15:39;8.38;;;3.13;;
25479;SDS011;13393;49.378;8.686;2024-02-21T14:18:06;8.70;;;2.58;;
25479;SDS011;13393;49.378;8.686;2024-02-21T14:20:36;6.70;;;2.65;;
25479;SDS011;13393;49.378;8.686;2024-02-21T14:23:03;8.68;;;2.70;;
25479;SDS011;13393;49.378;8.686;2024-02-21T14:25:31;8.73;;;2.35;;
25479;SDS011;13393;49.378;8.686;2024-02-21T14:27:58;5.80;;;2.08;;
25479;SDS011;13393;49.378;8.686;2024-02-21T14:30:25;7.50;;;2.17;;
25479;SDS011;13393;49.378;8.686;2024-02-21T14:32:52;8.20;;;2.53;;
25479;SDS011;13393;49.378;8.686;2024-02-21T14:35:18;8.40;;;2.00;;
25479;SDS011;13393;49.378;8.686;2024-02-21T14:37:45;3.22;;;1.90;;